Time;durP1;ratioP1;P1;durP2;ratioP2;P2;SDS_P1;SDS_P2;PMS_P1;PMS_P2;Temp;Humidity;BMP_temperature;BMP_pressure;BME280_temperature;BME280_humidity;BME280_pressure;Samples;Min_cycle;Max_cycle;Signal;HPM_P1;HPM_P2
2021/01/15 00:02:19;;;;;;;17.92;11.90;;;;;;;-0.48;69.82;95218.88;5008773;28;20038;-66
2021/01/15 00:04:44;;;;;;;14.05;11.63;;;;;;;-0.50;70.34;95218.31;5008927;28;20034;-71
2021/01/15 00:07:09;;;;;;;24.25;11.52;;;;;;;-0.61;70.13;95204.25;4991276;28;20050;-66
2021/01/15 00:09:34;;;;;;;14.73;11.65;;;;;;;-0.59;70.31;95207.44;5008648;28;20030;-68
2021/01/15 00:12:00;;;;;;;16.58;11.98;;;;;;;-0.65;70.51;95216.97;5010626;28;20026;-68
2021/01/15 00:14:25;;;;;;;17.80;11.68;;;;;;;-0.59;70.53;95225.72;5008925;28;20073;-68
2021/01/15 00:16:54;;;;;;;16.88;12.35;;;;;;;-0.61;70.29;95228.56;5008942;28;20041;-68
2021/01/15 00:19:19;;;;;;;12.98;11.00;;;;;;;-0.72;70.94;95225.97;5008515;28;20551;-69
2021/01/15 00:21:50;;;;;;;14.18;11.18;;;;;;;-0.69;70.71;95235.97;5008546;28;20114;-68
2021/01/15 00:24:18;;;;;;;17.85;11.38;;;;;;;-0.91;70.87;95230.56;5010795;28;20209;-68
2021/01/15 00:26:45;;;;;;;17.02;11.40;;;;;;;-0.85;71.15;95234.84;5008612;28;20034;-68
2021/01/15 00:29:11;;;;;;;19.58;13.18;;;;;;;-0.90;71.12;95232.13;5008519;28;20038;-69
2021/01/15 00:31:39;;;;;;;21.02;12.15;;;;;;;-0.96;71.52;95228.63;5008571;28;20042;-67
2021/01/15 00:34:09;;;;;;;20.90;13.30;;;;;;;-1.14;71.54;95208.66;5008738;28;20064;-69
2021/01/15 00:36:36;;;;;;;22.33;12.50;;;;;;;-1.17;72.23;95232.63;5008913;28;20045;-67
2021/01/15 00:39:04;;;;;;;20.52;12.68;;;;;;;-1.25;71.69;95212.06;5010377;28;20037;-68
2021/01/15 00:41:33;;;;;;;16.85;12.93;;;;;;;-1.33;72.60;95223.66;5008339;28;20113;-69
2021/01/15 00:43:58;;;;;;;18.70;11.63;;;;;;;-1.40;72.67;95222.19;5008541;28;20046;-68
2021/01/15 00:46:32;;;;;;;15.30;13.00;;;;;;;-1.37;72.09;95232.16;5008431;28;20045;-68
2021/01/15 00:49:02;;;;;;;15.23;11.43;;;;;;;-1.44;72.17;95232.25;5008274;28;20041;-69
2021/01/15 00:51:27;;;;;;;20.70;13.80;;;;;;;-1.50;73.02;95232.38;4990737;28;20040;-68
2021/01/15 00:53:53;;;;;;;19.02;12.57;;;;;;;-1.58;73.31;95228.31;5010537;28;20026;-69
2021/01/15 00:56:19;;;;;;;17.85;12.70;;;;;;;-1.66;73.42;95213.75;5009821;28;20132;-68
2021/01/15 00:58:48;;;;;;;21.88;13.02;;;;;;;-1.59;73.69;95224.91;5011762;28;20124;-68
2021/01/15 01:01:18;;;;;;;21.15;13.70;;;;;;;-1.71;73.38;95215.47;5011899;28;20462;-68
2021/01/15 01:03:44;;;;;;;19.13;13.48;;;;;;;-1.92;74.06;95212.38;5012093;28;20546;-69
2021/01/15 01:06:14;;;;;;;15.93;12.20;;;;;;;-1.88;74.15;95217.94;5014030;28;20030;-69
2021/01/15 01:08:40;;;;;;;15.88;12.63;;;;;;;-1.77;72.95;95224.19;5012019;28;20487;-69
2021/01/15 01:11:21;;;;;;;20.65;13.80;;;;;;;-1.87;73.96;95212.50;5012086;28;20038;-67
2021/01/15 01:13:51;;;;;;;20.73;13.32;;;;;;;-1.99;74.28;95221.31;5012009;28;20046;-68
2021/01/15 01:16:17;;;;;;;18.45;12.85;;;;;;;-1.84;74.01;95225.09;5011943;28;20060;-69
2021/01/15 01:18:44;;;;;;;18.15;13.77;;;;;;;-1.83;74.06;95237.09;5011563;28;20081;-69
2021/01/15 01:21:10;;;;;;;20.23;13.25;;;;;;;-1.92;74.34;95230.63;5013821;28;20109;-68
2021/01/15 01:23:36;;;;;;;22.92;14.27;;;;;;;-1.92;73.89;95219.41;5011187;28;20046;-68
2021/01/15 01:26:02;;;;;;;21.85;15.45;;;;;;;-1.91;74.38;95228.81;5011580;28;20034;-68
2021/01/15 01:28:27;;;;;;;20.15;13.70;;;;;;;-2.14;74.71;95232.16;5011207;28;20049;-69
2021/01/15 01:30:53;;;;;;;22.05;14.55;;;;;;;-2.05;74.09;95230.00;5011705;28;20488;-71
2021/01/15 01:33:18;;;;;;;24.10;14.02;;;;;;;-2.11;74.80;95211.63;5013719;28;20527;-69
2021/01/15 01:35:44;;;;;;;20.08;13.55;;;;;;;-2.02;74.14;95225.16;5011564;28;20547;-70
2021/01/15 01:38:09;;;;;;;19.85;13.77;;;;;;;-2.12;74.23;95215.25;5011577;28;20125;-69
2021/01/15 01:40:34;;;;;;;23.60;13.18;;;;;;;-2.12;74.17;95223.06;5011236;28;20076;-69
2021/01/15 01:43:00;;;;;;;18.52;13.30;;;;;;;-2.20;74.53;95233.00;5011177;28;20034;-69
2021/01/15 01:45:25;;;;;;;15.07;12.23;;;;;;;-2.14;74.67;95227.72;4993807;28;20052;-70
2021/01/15 01:47:53;;;;;;;17.20;12.07;;;;;;;-2.08;74.08;95230.47;5012973;28;20379;-69
2021/01/15 01:50:18;;;;;;;16.38;11.88;;;;;;;-2.24;74.01;95224.88;5011025;28;20042;-69
2021/01/15 01:52:43;;;;;;;20.38;13.02;;;;;;;-2.12;73.84;95233.50;5011134;28;20042;-69
2021/01/15 01:55:10;;;;;;;20.80;12.48;;;;;;;-2.13;73.69;95238.94;5011298;28;20053;-70
2021/01/15 01:57:36;;;;;;;21.80;13.25;;;;;;;-2.28;74.26;95238.56;5011062;28;20116;-70
2021/01/15 02:00:02;;;;;;;18.60;12.85;;;;;;;-2.31;74.15;95224.13;5012580;28;20129;-70
2021/01/15 02:02:28;;;;;;;16.55;12.85;;;;;;;-2.29;73.69;95221.34;5010716;28;20101;-69
2021/01/15 02:04:53;;;;;;;19.52;13.32;;;;;;;-2.41;73.81;95218.66;4993403;28;20045;-70
2021/01/15 02:07:19;;;;;;;25.02;13.40;;;;;;;-2.43;74.25;95231.13;5009939;28;20054;-69
2021/01/15 02:10:04;;;;;;;22.55;14.15;;;;;;;-2.45;74.98;95233.97;5010485;28;20096;-70
2021/01/15 02:12:49;;;;;;;17.05;12.40;;;;;;;-2.38;74.81;95232.06;5010768;28;20034;-69
2021/01/15 02:15:38;;;;;;;21.70;13.93;;;;;;;-2.39;74.33;95240.09;5012728;28;20034;-70
2021/01/15 02:18:10;;;;;;;22.88;13.25;;;;;;;-2.46;74.20;95226.34;5010962;28;20128;-69
2021/01/15 02:21:01;;;;;;;28.42;14.50;;;;;;;-2.40;74.14;95241.13;5010509;28;20100;-69
2021/01/15 02:23:41;;;;;;;21.00;13.68;;;;;;;-2.57;73.91;95227.09;5010503;28;20391;-68
2021/01/15 02:26:25;;;;;;;19.98;13.82;;;;;;;-2.57;74.88;95235.69;5010603;28;20049;-72
2021/01/15 02:29:09;;;;;;;22.85;14.43;;;;;;;-2.56;75.03;95237.28;4992441;28;20050;-70
2021/01/15 02:32:13;;;;;;;26.38;15.18;;;;;;;-2.62;75.31;95225.16;5010194;28;20042;-69
2021/01/15 02:35:16;;;;;;;25.88;14.70;;;;;;;-2.56;75.01;95231.28;4995669;28;20137;-69
2021/01/15 02:38:15;;;;;;;25.17;14.40;;;;;;;-2.62;74.81;95233.75;5010307;28;20049;-69
2021/01/15 02:40:49;;;;;;;24.60;14.82;;;;;;;-2.60;75.23;95235.34;5010323;28;20046;-70
2021/01/15 02:43:14;;;;;;;23.70;13.55;;;;;;;-2.83;75.37;95210.78;5010061;28;20042;-71
2021/01/15 02:45:41;;;;;;;24.17;14.55;;;;;;;-2.64;74.93;95235.78;5010315;28;20034;-69
2021/01/15 02:48:15;;;;;;;23.63;14.10;;;;;;;-2.64;74.91;95235.00;5011944;28;20041;-72
2021/01/15 02:50:41;;;;;;;26.27;16.08;;;;;;;-2.66;75.23;95227.41;5010099;28;20523;-69
2021/01/15 02:53:06;;;;;;;29.55;16.13;;;;;;;-2.77;74.83;95209.91;5009882;28;20037;-69
2021/01/15 02:55:32;;;;;;;32.13;16.58;;;;;;;-2.69;74.92;95233.03;5010102;28;20049;-70
2021/01/15 02:57:57;;;;;;;26.92;17.13;;;;;;;-2.81;75.36;95218.38;5009856;28;20068;-70
2021/01/15 03:00:23;;;;;;;29.58;16.05;;;;;;;-2.92;76.09;95225.09;4991915;28;20029;-70
2021/01/15 03:03:27;;;;;;;29.95;16.90;;;;;;;-2.78;75.88;95238.75;4994176;28;20034;-70
2021/01/15 03:06:02;;;;;;;30.50;16.98;;;;;;;-2.75;76.02;95244.34;4987424;28;20046;-69
2021/01/15 03:08:28;;;;;;;34.55;17.17;;;;;;;-2.86;75.60;95224.25;5009588;28;20042;-70
2021/01/15 03:10:59;;;;;;;31.70;17.92;;;;;;;-2.77;75.23;95248.16;4992082;28;20407;-69
2021/01/15 03:13:28;;;;;;;40.10;19.10;;;;;;;-2.77;75.96;95254.16;5009907;28;20073;-70
2021/01/15 03:15:57;;;;;;;39.67;17.95;;;;;;;-2.89;75.23;95242.88;5009907;28;20054;-70
2021/01/15 03:18:23;;;;;;;39.05;19.35;;;;;;;-2.98;75.50;95228.56;4991387;28;20112;-70
2021/01/15 03:20:48;;;;;;;38.55;18.55;;;;;;;-2.90;75.15;95242.09;5011470;28;20121;-70
2021/01/15 03:23:14;;;;;;;38.80;18.52;;;;;;;-3.09;75.64;95227.47;5008444;28;20460;-69
2021/01/15 03:25:39;;;;;;;34.50;18.35;;;;;;;-3.02;75.29;95238.63;5008992;28;20038;-70
2021/01/15 03:28:05;;;;;;;37.35;19.60;;;;;;;-3.10;75.69;95238.13;5009483;28;20103;-68
2021/01/15 03:30:31;;;;;;;41.75;19.10;;;;;;;-2.95;75.57;95261.97;5009264;28;20034;-71
2021/01/15 03:33:01;;;;;;;37.78;19.25;;;;;;;-2.98;75.89;95263.19;5011394;28;20026;-71
2021/01/15 03:35:28;;;;;;;37.47;18.52;;;;;;;-2.98;75.46;95262.41;5009746;28;20113;-70
2021/01/15 03:38:01;;;;;;;35.83;18.13;;;;;;;-3.00;75.47;95262.63;5009410;28;20042;-71
2021/01/15 03:40:29;;;;;;;39.45;18.90;;;;;;;-3.14;75.99;95259.34;5008984;28;20161;-70
2021/01/15 03:42:55;;;;;;;32.50;18.27;;;;;;;-3.25;75.92;95241.06;5008963;28;20045;-70
2021/01/15 03:45:21;;;;;;;39.28;18.35;;;;;;;-3.09;75.91;95268.31;5009406;28;20060;-71
2021/01/15 03:47:46;;;;;;;45.17;20.20;;;;;;;-3.16;75.78;95253.56;4993606;28;20026;-71
2021/01/15 03:50:13;;;;;;;36.90;19.08;;;;;;;-3.08;75.69;95269.91;5009100;28;20046;-72
2021/01/15 03:52:38;;;;;;;42.75;20.17;;;;;;;-3.31;75.71;95234.91;5008905;28;20049;-71
2021/01/15 03:55:05;;;;;;;40.65;18.92;;;;;;;-3.15;75.28;95270.78;5009288;28;20050;-71
2021/01/15 03:57:30;;;;;;;39.92;19.75;;;;;;;-3.21;75.01;95261.22;5009088;28;20032;-70
2021/01/15 03:59:55;;;;;;;42.30;18.80;;;;;;;-3.21;75.96;95263.81;5010841;28;20030;-71
2021/01/15 04:02:21;;;;;;;38.75;19.83;;;;;;;-3.30;75.98;95259.91;5009065;28;20030;-69
2021/01/15 04:04:49;;;;;;;48.03;21.00;;;;;;;-3.42;75.53;95240.81;4991697;28;20088;-71
2021/01/15 04:07:16;;;;;;;43.38;21.45;;;;;;;-3.33;76.00;95251.72;5009114;28;20037;-70
2021/01/15 04:09:41;;;;;;;43.25;19.77;;;;;;;-3.27;75.92;95266.50;5009015;28;20034;-69
2021/01/15 04:12:07;;;;;;;41.50;19.25;;;;;;;-3.39;76.15;95248.19;5010852;28;20092;-70
2021/01/15 04:14:32;;;;;;;43.85;20.67;;;;;;;-3.35;76.12;95266.75;5009133;28;20058;-70
2021/01/15 04:16:57;;;;;;;39.25;20.33;;;;;;;-3.29;76.00;95276.31;5009018;28;20035;-70
2021/01/15 04:19:22;;;;;;;41.38;19.77;;;;;;;-3.30;76.32;95267.72;4991064;28;20128;-70
2021/01/15 04:21:53;;;;;;;40.75;19.25;;;;;;;-3.26;75.55;95281.09;5008847;28;20577;-70
2021/01/15 04:24:18;;;;;;;42.53;18.67;;;;;;;-3.31;75.89;95281.72;5010941;28;20072;-70
2021/01/15 04:26:44;;;;;;;39.47;19.92;;;;;;;-3.35;75.69;95283.16;5008824;28;20034;-70
2021/01/15 04:29:09;;;;;;;43.92;20.80;;;;;;;-3.50;75.57;95260.06;5008465;28;20038;-70
2021/01/15 04:31:34;;;;;;;39.55;19.45;;;;;;;-3.52;75.85;95264.69;5010415;28;20335;-71
2021/01/15 04:33:59;;;;;;;41.80;19.73;;;;;;;-3.55;76.31;95259.13;5012897;28;20121;-70
2021/01/15 04:36:26;;;;;;;46.70;21.60;;;;;;;-3.49;76.50;95260.88;5012820;28;20025;-70
2021/01/15 04:38:52;;;;;;;40.65;19.48;;;;;;;-3.48;75.55;95265.88;5014095;28;20025;-72
2021/01/15 04:41:22;;;;;;;48.30;21.33;;;;;;;-3.37;76.53;95293.00;5012521;28;20042;-70
2021/01/15 04:43:53;;;;;;;49.35;21.35;;;;;;;-3.39;76.07;95289.78;5012572;28;20038;-70
2021/01/15 04:46:20;;;;;;;50.03;21.30;;;;;;;-3.40;76.17;95288.19;5012727;28;20053;-70
2021/01/15 04:48:48;;;;;;;40.35;21.35;;;;;;;-3.52;76.44;95275.09;5012216;28;20042;-72
2021/01/15 04:51:19;;;;;;;44.33;19.52;;;;;;;-3.46;76.27;95283.84;5014178;28;20058;-70
2021/01/15 04:53:54;;;;;;;47.97;20.90;;;;;;;-3.48;76.36;95286.69;5012875;28;20470;-71
2021/01/15 04:56:34;;;;;;;49.13;21.70;;;;;;;-3.40;76.55;95298.59;5012490;28;20038;-71
2021/01/15 04:59:03;;;;;;;42.47;20.98;;;;;;;-3.43;76.53;95304.22;5011941;28;20526;-72
2021/01/15 05:01:42;;;;;;;46.42;20.25;;;;;;;-3.44;75.96;95307.84;5012037;28;20049;-71
2021/01/15 05:04:16;;;;;;;43.63;20.25;;;;;;;-3.52;76.10;95295.91;5012427;28;20132;-72
2021/01/15 05:06:49;;;;;;;48.30;20.73;;;;;;;-3.50;76.40;95304.28;5012203;28;20050;-74
2021/01/15 05:09:22;;;;;;;44.92;21.02;;;;;;;-3.59;76.14;95292.53;5013784;28;20033;-71
2021/01/15 05:11:49;;;;;;;45.83;21.30;;;;;;;-3.61;76.62;95286.78;5012704;28;20048;-71
2021/01/15 05:14:17;;;;;;;45.05;20.92;;;;;;;-3.48;76.63;95312.69;4994782;28;20037;-72
2021/01/15 05:16:44;;;;;;;46.20;20.77;;;;;;;-3.72;76.53;95277.06;5008728;28;20049;-71
2021/01/15 05:19:11;;;;;;;48.15;21.65;;;;;;;-3.49;76.49;95311.06;5011588;28;20492;-71
2021/01/15 05:21:38;;;;;;;55.50;22.05;;;;;;;-3.52;76.46;95308.91;5011749;28;20439;-72
2021/01/15 05:24:05;;;;;;;50.95;22.65;;;;;;;-3.55;76.78;95317.13;5013911;28;20040;-71
2021/01/15 05:26:39;;;;;;;46.00;21.17;;;;;;;-3.59;76.81;95315.16;4994212;28;20041;-71
2021/01/15 05:29:06;;;;;;;46.00;21.45;;;;;;;-3.63;76.99;95316.56;5011625;28;20052;-72
2021/01/15 05:31:50;;;;;;;48.38;23.70;;;;;;;-3.52;77.05;95334.13;5011505;28;20760;-72
2021/01/15 05:34:16;;;;;;;46.70;21.40;;;;;;;-3.66;76.54;95310.78;5011558;28;20487;-71
2021/01/15 05:36:42;;;;;;;48.70;22.52;;;;;;;-3.71;77.32;95307.25;5011584;28;20117;-72
2021/01/15 05:39:18;;;;;;;48.00;23.10;;;;;;;-3.65;77.07;95311.59;5013177;28;20025;-72
2021/01/15 05:41:45;;;;;;;53.00;23.17;;;;;;;-3.52;76.98;95341.91;4993263;28;20038;-72
2021/01/15 05:44:11;;;;;;;53.70;24.98;;;;;;;-3.49;77.55;95334.47;5011468;28;20034;-72
2021/01/15 05:46:46;;;;;;;54.38;23.73;;;;;;;-3.54;77.54;95333.50;5011563;28;20038;-72
2021/01/15 05:49:13;;;;;;;57.72;25.48;;;;;;;-3.45;78.01;95337.44;5011115;28;20076;-73
2021/01/15 05:51:39;;;;;;;57.58;24.50;;;;;;;-3.51;77.59;95331.28;5011042;28;20439;-72
2021/01/15 05:54:07;;;;;;;47.97;23.02;;;;;;;-3.48;77.50;95333.47;5013365;28;20034;-72
2021/01/15 05:56:38;;;;;;;52.05;23.25;;;;;;;-3.47;77.57;95336.88;5011374;28;20038;-72
2021/01/15 05:59:06;;;;;;;50.35;24.10;;;;;;;-3.57;77.40;95324.34;4993145;28;20399;-71
2021/01/15 06:01:43;;;;;;;54.28;23.90;;;;;;;-3.56;77.17;95343.34;5010923;28;20034;-71
2021/01/15 06:04:09;;;;;;;48.75;22.92;;;;;;;-3.68;77.17;95315.41;5011192;28;20029;-71
2021/01/15 06:06:36;;;;;;;42.42;22.38;;;;;;;-3.50;77.33;95360.69;5010871;28;20053;-71
2021/01/15 06:09:06;;;;;;;46.33;22.65;;;;;;;-3.54;77.20;95349.09;5012400;28;20022;-73
2021/01/15 06:11:33;;;;;;;51.05;21.00;;;;;;;-3.49;76.98;95363.06;5010623;28;20046;-71
2021/01/15 06:13:59;;;;;;;42.38;21.35;;;;;;;-3.56;76.87;95364.94;4993425;28;20052;-73
2021/01/15 06:16:24;;;;;;;51.45;24.27;;;;;;;-3.57;76.77;95365.94;5010746;28;20124;-73
2021/01/15 06:19:02;;;;;;;53.55;23.40;;;;;;;-3.60;76.76;95373.34;5010311;28;20042;-72
2021/01/15 06:21:30;;;;;;;54.85;21.92;;;;;;;-3.57;76.91;95385.94;5010507;28;20030;-70
2021/01/15 06:24:01;;;;;;;51.05;22.73;;;;;;;-4.24;78.09;95380.28;5012170;28;20022;-73
2021/01/15 06:26:39;;;;;;;55.20;24.77;;;;;;;-4.58;79.44;95366.59;4992989;28;20034;-72
2021/01/15 06:29:14;;;;;;;102.97;35.85;;;;;;;-4.85;80.35;95358.06;4992560;28;20100;-71
2021/01/15 06:31:44;;;;;;;61.28;24.55;;;;;;;-4.79;79.97;95367.63;4992782;28;20034;-72
2021/01/15 06:34:10;;;;;;;45.15;22.25;;;;;;;-4.73;81.55;95400.56;4992922;28;20038;-71
2021/01/15 06:37:06;;;;;;;43.97;22.45;;;;;;;-4.74;81.78;95400.75;5010355;28;20030;-72
2021/01/15 06:39:31;;;;;;;40.35;21.40;;;;;;;-4.67;81.42;95411.13;4997566;28;20040;-71
2021/01/15 06:42:03;;;;;;;41.22;21.50;;;;;;;-4.26;80.29;95408.22;5011940;28;20022;-72
2021/01/15 06:44:29;;;;;;;;;;;;;;;-3.89;79.45;95419.69;5010875;28;20034;-72
2021/01/15 06:46:55;;;;;;;37.60;21.45;;;;;;;-3.86;78.13;95408.09;5009927;28;20279;-73
2021/01/15 06:49:30;;;;;;;39.33;22.42;;;;;;;-4.20;78.79;95418.63;5009836;28;20044;-72
2021/01/15 06:51:57;;;;;;;37.03;21.50;;;;;;;-4.30;78.12;95410.47;5009734;28;20046;-72
2021/01/15 06:54:33;;;;;;;42.60;22.92;;;;;;;-3.61;77.91;95431.56;5009227;28;20104;-71
2021/01/15 06:57:19;;;;;;;39.55;23.33;;;;;;;-3.06;77.58;95429.22;4994074;28;20088;-71
2021/01/15 06:59:50;;;;;;;41.88;23.98;;;;;;;-3.00;76.81;95415.38;5010062;28;20057;-70
2021/01/15 07:02:49;;;;;;;39.50;23.38;;;;;;;-2.41;76.28;95433.06;5009634;28;20042;-70
2021/01/15 07:05:16;;;;;;;53.13;26.40;;;;;;;-2.16;76.23;95440.03;5004777;28;20132;-68
2021/01/15 07:07:42;;;;;;;59.85;29.08;;;;;;;-2.43;75.87;95431.69;4993804;28;20042;-70
2021/01/15 07:10:08;;;;;;;69.32;28.83;;;;;;;-2.10;75.94;95439.16;5012147;28;20412;-69
2021/01/15 07:12:59;;;;;;;69.20;30.58;;;;;;;-1.92;75.58;95448.81;5011357;28;20037;-81
2021/01/15 07:15:26;;;;;;;68.53;31.17;;;;;;;-2.14;75.05;95431.00;5011868;28;20523;-71
2021/01/15 07:17:58;;;;;;;58.55;27.05;;;;;;;-1.86;75.54;95446.13;4976796;28;20026;-71
2021/01/15 07:20:33;;;;;;;76.85;31.40;;;;;;;-1.71;75.43;95452.78;5006694;28;20134;-71
2021/01/15 07:23:13;;;;;;;76.03;31.10;;;;;;;-1.72;74.66;95445.97;5010603;28;20034;-71
2021/01/15 07:25:47;;;;;;;72.97;30.58;;;;;;;-1.58;74.29;95469.06;5010686;28;20062;-70
2021/01/15 07:28:13;;;;;;;60.60;28.83;;;;;;;-1.55;73.92;95446.16;5009469;28;20042;-70
2021/01/15 07:30:38;;;;;;;73.38;30.95;;;;;;;-1.30;73.69;95467.69;5010433;28;20506;-69
2021/01/15 07:33:06;;;;;;;59.13;28.17;;;;;;;-1.36;72.71;95471.19;5012229;28;20061;-71
2021/01/15 07:35:36;;;;;;;54.97;26.88;;;;;;;-1.13;73.35;95473.88;5010662;28;20121;-71
2021/01/15 07:38:19;;;;;;;53.47;27.40;;;;;;;-1.16;72.83;95465.72;5010333;28;20029;-72
2021/01/15 07:40:45;;;;;;;50.20;24.27;;;;;;;-1.07;72.22;95459.97;5010344;28;20038;-71
2021/01/15 07:43:35;;;;;;;53.38;25.90;;;;;;;-0.81;71.76;95478.88;4992288;28;20049;-71
2021/01/15 07:46:02;;;;;;;58.88;27.92;;;;;;;-0.78;71.64;95473.19;5010470;28;20050;-72
2021/01/15 07:48:27;;;;;;;49.40;25.30;;;;;;;-0.82;71.46;95466.81;5009743;28;20022;-72
2021/01/15 07:50:53;;;;;;;53.00;27.30;;;;;;;-0.83;71.12;95467.84;5012415;28;20134;-71
2021/01/15 07:53:37;;;;;;;53.67;27.17;;;;;;;-0.66;70.48;95487.09;5010064;28;20030;-71
2021/01/15 07:56:04;;;;;;;45.58;23.90;;;;;;;-0.49;70.56;95481.19;4992526;28;20038;-72
2021/01/15 07:58:38;;;;;;;48.55;25.38;;;;;;;-0.39;70.38;95499.72;5009156;28;20060;-72
2021/01/15 08:01:09;;;;;;;51.90;26.23;;;;;;;-0.52;69.90;95492.88;5029501;28;20132;-71
2021/01/15 08:03:49;;;;;;;45.92;23.92;;;;;;;-0.29;69.92;95497.34;5012122;28;20431;-71
2021/01/15 08:06:19;;;;;;;37.75;21.48;;;;;;;-0.44;69.39;95502.22;5013752;28;20487;-65
2021/01/15 08:09:04;;;;;;;38.50;22.55;;;;;;;-0.40;69.87;95505.97;5029668;28;20045;-66
2021/01/15 08:11:31;;;;;;;35.45;21.10;;;;;;;-0.50;69.29;95496.06;5029471;28;20041;-65
2021/01/15 08:14:16;;;;;;;37.25;22.23;;;;;;;-0.20;68.93;95509.06;5029460;28;20064;-65
2021/01/15 08:16:45;;;;;;;39.85;22.55;;;;;;;-0.20;68.20;95505.66;5029500;28;20037;-65
2021/01/15 08:19:12;;;;;;;44.33;23.90;;;;;;;-0.49;68.15;95512.56;5029476;28;20125;-65
2021/01/15 08:21:40;;;;;;;37.35;21.90;;;;;;;-0.67;68.46;95522.03;5029523;28;20114;-65
2021/01/15 08:24:06;;;;;;;48.65;24.98;;;;;;;-0.67;68.89;95524.66;5031706;28;20117;-66
2021/01/15 08:26:38;;;;;;;37.08;22.17;;;;;;;-0.40;68.54;95522.44;5029718;28;20120;-66
2021/01/15 08:29:04;;;;;;;42.03;23.77;;;;;;;-0.61;68.36;95515.16;5028518;28;20053;-65
2021/01/15 08:31:29;;;;;;;39.30;21.88;;;;;;;-0.23;68.26;95532.25;5029134;28;20057;-65
2021/01/15 08:34:19;;;;;;;36.20;20.92;;;;;;;-0.02;67.73;95535.09;5029436;28;20136;-66
2021/01/15 08:36:50;;;;;;;39.72;22.63;;;;;;;-0.09;66.89;95529.19;5029373;28;20048;-66
2021/01/15 08:39:15;;;;;;;38.47;23.05;;;;;;;0.10;66.64;95534.28;5031270;28;20029;-72
2021/01/15 08:41:41;;;;;;;33.80;21.83;;;;;;;0.02;66.98;95519.75;5029144;28;20038;-68
2021/01/15 08:44:08;;;;;;;30.50;20.17;;;;;;;-0.04;66.48;95520.66;5029469;28;20065;-68
2021/01/15 08:46:34;;;;;;;35.22;20.58;;;;;;;0.09;66.63;95520.41;5029262;28;20096;-69
2021/01/15 08:49:06;;;;;;;34.03;21.70;;;;;;;0.22;66.16;95527.25;5028760;28;20045;-68
2021/01/15 08:51:34;;;;;;;;;;;;;;;0.04;66.27;95540.44;5029559;28;20056;-68
2021/01/15 08:54:09;;;;;;;39.60;21.15;;;;;;;-0.01;66.03;95541.91;5013452;28;19909;-68
2021/01/15 08:56:46;;;;;;;34.83;20.77;;;;;;;0.01;66.40;95552.16;5029395;28;20037;-72
2021/01/15 08:59:27;;;;;;;35.20;20.55;;;;;;;-0.06;66.18;95535.75;5028633;28;20128;-69
2021/01/15 09:01:53;;;;;;;32.90;20.30;;;;;;;0.03;66.21;95557.94;5011191;28;20534;-69
2021/01/15 09:04:32;;;;;;;35.17;22.08;;;;;;;-0.08;65.93;95562.16;5029256;28;20040;-70
2021/01/15 09:07:04;;;;;;;37.08;21.73;;;;;;;-0.20;66.31;95553.50;5028954;28;20407;-69
2021/01/15 09:09:31;;;;;;;37.53;22.00;;;;;;;-0.29;66.79;95576.56;5028880;28;20494;-70
2021/01/15 09:12:01;;;;;;;35.08;22.17;;;;;;;-0.47;66.79;95555.72;5030372;28;20468;-71
2021/01/15 09:14:27;;;;;;;38.92;22.92;;;;;;;-0.57;67.28;95563.31;5029119;28;20044;-71
2021/01/15 09:16:55;;;;;;;38.30;22.60;;;;;;;-0.62;67.79;95563.16;5029478;28;20053;-70
2021/01/15 09:19:24;;;;;;;37.00;21.83;;;;;;;-0.68;67.21;95543.97;5032106;28;20499;-70
2021/01/15 09:22:08;;;;;;;39.20;22.83;;;;;;;-0.57;67.56;95573.75;5032267;28;20045;-70
2021/01/15 09:24:38;;;;;;;35.78;21.15;;;;;;;-0.55;67.87;95575.13;5014565;28;20033;-70
2021/01/15 09:27:07;;;;;;;31.95;21.42;;;;;;;-0.43;67.81;95583.00;5034104;28;20021;-70
2021/01/15 09:29:38;;;;;;;35.13;21.05;;;;;;;-0.37;67.86;95581.31;5031943;28;20052;-69
2021/01/15 09:32:04;;;;;;;32.80;21.42;;;;;;;-0.46;67.93;95577.41;5032261;28;20036;-70
2021/01/15 09:34:30;;;;;;;36.97;22.67;;;;;;;-0.36;67.53;95577.66;5032306;28;20065;-69
2021/01/15 09:36:56;;;;;;;34.95;21.48;;;;;;;-0.26;67.52;95590.97;5032254;28;20104;-69
2021/01/15 09:39:24;;;;;;;29.63;20.17;;;;;;;-0.35;67.54;95577.47;5031852;28;20029;-70
2021/01/15 09:41:57;;;;;;;37.72;21.00;;;;;;;-0.34;67.13;95575.63;5034106;28;20022;-69
2021/01/15 09:44:25;;;;;;;36.88;21.30;;;;;;;-0.16;67.29;95590.44;5032187;28;20456;-69
2021/01/15 09:47:04;;;;;;;33.45;21.02;;;;;;;-0.33;67.30;95603.38;5032016;28;20033;-69
2021/01/15 09:49:32;;;;;;;30.50;20.52;;;;;;;-0.74;67.80;95591.09;5031816;28;20142;-69
2021/01/15 09:52:01;;;;;;;28.58;18.38;;;;;;;-0.62;67.45;95603.16;5014040;28;20495;-70
2021/01/15 09:54:28;;;;;;;28.77;17.38;;;;;;;-0.45;67.75;95597.31;5031820;28;20022;-69
2021/01/15 09:56:53;;;;;;;24.75;17.88;;;;;;;-0.66;67.61;95609.88;5033892;28;20029;-70
2021/01/15 09:59:20;;;;;;;32.40;19.00;;;;;;;-0.37;67.41;95597.78;5031179;28;20550;-68
2021/01/15 10:01:47;;;;;;;25.05;16.30;;;;;;;-0.31;67.10;95591.69;5031590;28;20052;-68
2021/01/15 10:04:13;;;;;;;29.50;18.27;;;;;;;-0.27;66.82;95586.78;5031838;28;20048;-69
2021/01/15 10:06:40;;;;;;;35.83;20.60;;;;;;;-0.31;66.51;95604.75;5031848;28;22166;-69
2021/01/15 10:09:06;;;;;;;29.15;20.45;;;;;;;-0.31;66.89;95594.28;5033403;28;20029;-70
2021/01/15 10:11:39;;;;;;;25.83;17.50;;;;;;;-0.33;66.51;95598.94;5031137;28;20052;-69
2021/01/15 10:14:09;;;;;;;25.80;19.05;;;;;;;-0.20;66.54;95605.00;5031690;28;20046;-70
2021/01/15 10:16:39;;;;;;;23.33;17.65;;;;;;;-0.24;65.87;95609.88;5031582;28;20037;-69
2021/01/15 10:19:05;;;;;;;21.85;16.63;;;;;;;-0.19;65.79;95612.59;5031475;28;20061;-72
2021/01/15 10:21:32;;;;;;;19.40;15.48;;;;;;;-0.14;65.46;95610.13;5031069;28;20460;-72
2021/01/15 10:23:58;;;;;;;19.67;15.48;;;;;;;-0.07;65.01;95613.41;5015671;28;20030;-71
2021/01/15 10:26:30;;;;;;;24.98;17.85;;;;;;;0.05;64.97;95610.00;5031549;28;20037;-71
2021/01/15 10:28:57;;;;;;;26.33;16.80;;;;;;;-0.05;64.45;95585.25;5029410;28;20037;-69
2021/01/15 10:31:45;;;;;;;24.33;17.50;;;;;;;0.24;64.42;95609.69;5031122;28;20065;-67
2021/01/15 10:34:11;;;;;;;27.15;17.80;;;;;;;0.22;64.44;95603.91;5025636;28;20491;-68
2021/01/15 10:36:39;;;;;;;27.58;18.77;;;;;;;0.40;64.48;95610.81;5031168;28;20044;-66
2021/01/15 10:39:05;;;;;;;32.47;20.85;;;;;;;0.29;64.22;95621.31;5032984;28;20029;-71
2021/01/15 10:41:33;;;;;;;28.00;18.65;;;;;;;-0.31;66.12;95609.16;5030312;28;20403;-67
2021/01/15 10:44:04;;;;;;;32.95;18.70;;;;;;;-0.88;67.04;95562.53;5029841;28;20037;-78
2021/01/15 10:46:35;;;;;;;30.10;20.02;;;;;;;-0.11;66.54;95609.66;5031469;28;20040;-75
2021/01/15 10:49:06;;;;;;;30.92;18.67;;;;;;;-0.10;66.50;95611.28;5035070;28;20045;-75
2021/01/15 10:51:32;;;;;;;29.58;18.75;;;;;;;0.07;65.81;95589.69;5032766;28;20025;-79
2021/01/15 10:53:58;;;;;;;18.58;14.50;;;;;;;-0.15;64.84;95612.97;5032872;28;20022;-73
2021/01/15 10:56:24;;;;;;;27.90;15.88;;;;;;;-0.03;64.43;95596.25;5030859;28;20030;-67
2021/01/15 10:58:50;;;;;;;29.35;18.73;;;;;;;-0.10;65.47;95608.66;5035064;28;20045;-75
2021/01/15 11:01:16;;;;;;;27.42;16.10;;;;;;;-1.05;68.06;95604.13;5014431;28;20045;-66
2021/01/15 11:03:43;;;;;;;30.65;18.67;;;;;;;-1.27;69.19;95608.22;5031028;28;20034;-81
2021/01/15 11:06:09;;;;;;;28.27;18.85;;;;;;;-1.06;70.20;95606.97;5033305;28;20017;-73
2021/01/15 11:08:34;;;;;;;32.50;19.60;;;;;;;-0.97;70.14;95597.81;5013017;28;20103;-76
2021/01/15 11:11:00;;;;;;;36.50;19.00;;;;;;;-0.76;68.88;95611.41;5031064;28;20568;-74
2021/01/15 11:13:25;;;;;;;31.35;19.98;;;;;;;-0.80;69.29;95595.38;5030977;28;20601;-77
2021/01/15 11:15:50;;;;;;;29.42;16.08;;;;;;;-1.29;70.91;95594.56;5031495;28;20033;-73
2021/01/15 11:18:16;;;;;;;29.20;18.30;;;;;;;-0.53;68.32;95617.50;5015116;28;20022;-74
2021/01/15 11:20:43;;;;;;;28.63;18.52;;;;;;;-0.28;67.04;95611.34;5012769;28;20689;-73
2021/01/15 11:23:10;;;;;;;23.08;16.77;;;;;;;-0.24;66.96;95614.31;5012557;28;20376;-73
2021/01/15 11:25:35;;;;;;;25.95;18.10;;;;;;;-0.14;66.53;95557.81;5030382;28;20029;-78
2021/01/15 11:28:01;;;;;;;28.00;19.05;;;;;;;0.36;65.54;95617.56;5029832;28;20060;-69
2021/01/15 11:30:26;;;;;;;37.53;20.25;;;;;;;-0.43;67.71;95611.75;5013312;28;20033;-77
2021/01/15 11:32:51;;;;;;;31.35;19.13;;;;;;;-0.96;67.41;95543.78;5027446;23;20029;-60